Main page
METAR-TAF:

METAR-TAF

Airports :

Bordeaux, France

Bordeaux–Mérignac Airport

latitude: 44-50N, longitude: 000-42W, elevation: 49 m

Current weather observation

The report was made 38 minutes ago, at 22:30 UTC
Wind 6 kt from the North/Northeast
Temperature 20°C
Humidity 83%
Pressure 1018 hPa
Visibility 10 km or more
no clouds below 1500 m and no cumulonimbus

METAR: LFBD 232230Z AUTO 02006KT CAVOK 20/17 Q1018 TEMPO FEW080CB

Time: 01:08 (23:08 UTC)

Forecast

The report was made 6 hours and 8 minutes ago, at 17:00 UTC
Forecast valid from 23 at 18 UTC to 24 at 24 UTC
Wind 7 kt from the North
Visibility 10 km or more
no clouds below 1500 m and no cumulonimbus
Probability 30% :
Temporary
from 23 at 21 UTC to 23 at 24 UTC
Few clouds at a height of 8000 ft, Cumulonimbus.

TAF: LFBD 231700Z 2318/2424 36007KT CAVOK PROB30 TEMPO 2321/2324 FEW080CB TX35/2416Z TN17/2405Z

Weather observations and forecasts of more than 4000 airports (METAR and TAF reports).

The available stations are represented by yellow and red dots on the map.

Hover mouse over dot to see the name of the station.

Then click to see weather observations and forecasts.

To change the map : click on the green buttons with a black cross to zoom in, on the green button with a dash to zoom out, or on the green arrows for adjacent maps.


METAR-TAF: